createdAt,value
2019-06-26T00:01:27.872Z,22.74
2019-06-26T00:03:59.782Z,22.76
2019-06-26T00:06:31.785Z,22.68
2019-06-26T00:09:04.201Z,22.86
2019-06-26T00:11:36.226Z,22.95
2019-06-26T00:14:08.193Z,22.96
2019-06-26T00:16:40.204Z,22.96
2019-06-26T00:19:12.119Z,22.77
2019-06-26T00:21:44.187Z,22.78
2019-06-26T00:24:16.357Z,22.73
2019-06-26T00:26:48.315Z,22.69
2019-06-26T00:29:20.489Z,22.94
2019-06-26T00:31:52.552Z,22.82
2019-06-26T00:34:24.608Z,23.00
2019-06-26T00:36:56.674Z,22.93
2019-06-26T00:39:28.775Z,22.92
2019-06-26T00:42:00.703Z,22.79
2019-06-26T00:44:32.651Z,22.89
2019-06-26T00:47:04.409Z,22.67
2019-06-26T00:49:36.390Z,22.67
2019-06-26T00:52:08.355Z,22.61
2019-06-26T00:54:40.411Z,22.59
2019-06-26T00:57:12.480Z,22.67
2019-06-26T00:59:44.503Z,22.69
2019-06-26T01:02:16.461Z,22.53
2019-06-26T01:04:55.901Z,22.41
2019-06-26T01:07:27.789Z,22.45
2019-06-26T01:09:59.606Z,22.45
2019-06-26T01:12:31.596Z,22.30
2019-06-26T01:15:04.223Z,22.37
2019-06-26T01:17:36.271Z,22.35
2019-06-26T01:20:08.460Z,22.23
2019-06-26T01:22:40.444Z,22.03
2019-06-26T01:25:12.844Z,21.97
2019-06-26T01:27:44.943Z,21.94
2019-06-26T01:30:16.690Z,22.00
2019-06-26T01:32:48.655Z,21.84
2019-06-26T01:35:20.699Z,21.69
2019-06-26T01:37:52.862Z,21.98
2019-06-26T01:40:24.848Z,21.97
2019-06-26T01:42:57.047Z,21.84
2019-06-26T01:45:28.855Z,21.66
2019-06-26T01:48:00.719Z,21.63
2019-06-26T01:50:32.606Z,21.60
2019-06-26T01:53:04.640Z,21.63
2019-06-26T01:55:36.546Z,21.59
2019-06-26T01:58:08.579Z,21.54
2019-06-26T02:00:40.500Z,21.51
2019-06-26T02:03:12.397Z,21.47
2019-06-26T02:05:44.264Z,21.26
2019-06-26T02:08:16.247Z,21.39
2019-06-26T02:10:48.380Z,21.37
2019-06-26T02:13:20.338Z,21.40
2019-06-26T02:15:52.260Z,21.50
2019-06-26T02:18:43.816Z,21.53
2019-06-26T02:21:15.817Z,21.65
2019-06-26T02:23:47.665Z,21.56
2019-06-26T02:26:19.501Z,21.22
2019-06-26T02:28:51.577Z,21.50
2019-06-26T02:31:23.683Z,21.47
2019-06-26T02:33:55.552Z,21.35
2019-06-26T02:36:27.408Z,21.33
2019-06-26T02:38:59.228Z,21.15
2019-06-26T02:41:31.475Z,21.11
2019-06-26T02:44:03.323Z,21.14
2019-06-26T02:46:35.352Z,21.35
2019-06-26T02:49:07.135Z,21.23
